Arlington, Iowa
Current Conditions -  °F | °C
As of 6:15 AM on Thursday 29 Jan 2015 (Local Time) from KOLZ Reporting Station
Haze Haze  
Wind Chill: 20°   Ceiling: 800
Heat Index: 32°   Visibility: 6mi
Dew Point: 32°   Wind: 18mph
Humidity: 100%   Direction: 330°NNW
Pressure: 29.95"   Gusts: 26mph
Location:  42.75°N, 91.67°W
Report Text: KOLZ 291215Z AUTO 33016G23KT 6SM BR OVC008 00/M00 A2995 RMK AO2
Loading
Personal Weather Stations






























Interactive Weather Map New forecast layout! Learn more

10-Day Weather Forecast

Advertisements
Track Severe Weather on mobile